Time;durP1;ratioP1;P1;durP2;ratioP2;P2;SDS_P1;SDS_P2;PMS_P1;PMS_P2;Temp;Humidity;BMP_temperature;BMP_pressure;BME280_temperature;BME280_humidity;BME280_pressure;Samples;Min_cycle;Max_cycle;Signal;HPM_P1;HPM_P2
2022/08/13 00:01:43;;;;;;;3.05;2.38;;;;;;;20.19;55.27;95611.56;4890532;29;20234;-80
2022/08/13 00:04:13;;;;;;;2.45;2.25;;;;;;;20.31;54.47;95602.63;4889885;29;20258;-80
2022/08/13 00:09:24;;;;;;;2.42;2.22;;;;;;;20.11;54.71;95601.47;4898414;29;20645;-80
2022/08/13 00:14:37;;;;;;;4.50;2.28;;;;;;;20.18;54.79;95600.31;4879928;29;20583;-80
2022/08/13 00:17:06;;;;;;;4.25;2.20;;;;;;;20.22;54.39;95601.41;4880049;29;20208;-80
2022/08/13 00:19:34;;;;;;;2.60;2.40;;;;;;;20.26;54.22;95602.53;4879575;29;20223;-80
2022/08/13 00:22:01;;;;;;;2.70;2.35;;;;;;;20.20;54.77;95593.03;4892040;29;20248;-80
2022/08/13 00:24:29;;;;;;;2.95;2.22;;;;;;;20.25;54.44;95600.94;4898318;29;20226;-80
2022/08/13 00:26:56;;;;;;;3.05;2.47;;;;;;;20.26;54.88;95599.13;4884255;29;20304;-80
2022/08/13 00:29:23;;;;;;;2.55;2.20;;;;;;;20.24;54.19;95598.56;4878735;29;20640;-80
2022/08/13 00:31:50;;;;;;;2.40;2.20;;;;;;;20.14;54.02;95601.81;4889483;29;20238;-80
2022/08/13 00:34:16;;;;;;;2.20;2.00;;;;;;;20.02;54.47;95604.47;4891131;29;20207;-80
2022/08/13 00:36:45;;;;;;;2.17;2.08;;;;;;;19.98;54.55;95606.00;4896839;29;20271;-80
2022/08/13 00:39:11;;;;;;;2.28;2.08;;;;;;;19.93;54.32;95605.88;4879132;29;20204;-80
2022/08/13 00:41:41;;;;;;;2.28;2.10;;;;;;;19.88;54.10;95615.44;4890051;29;20282;-80
2022/08/13 00:44:11;;;;;;;2.40;2.20;;;;;;;19.73;54.68;95608.13;4896859;29;20739;-80
2022/08/13 00:46:39;;;;;;;3.42;2.22;;;;;;;19.65;54.96;95608.47;4878616;29;20263;-80
2022/08/13 00:49:06;;;;;;;6.35;2.08;;;;;;;19.69;54.53;95600.97;4885419;29;20251;-80
2022/08/13 00:51:34;;;;;;;2.05;1.88;;;;;;;19.73;54.72;95597.69;4895582;29;20234;-80
2022/08/13 00:54:04;;;;;;;2.70;1.90;;;;;;;19.75;54.38;95603.47;4897183;29;20767;-80
2022/08/13 00:56:33;;;;;;;2.42;2.20;;;;;;;19.73;54.64;95597.69;4890977;29;20223;-80
2022/08/13 00:59:07;;;;;;;2.10;2.00;;;;;;;19.82;54.36;95593.66;4890822;29;20221;-80
2022/08/13 01:01:35;;;;;;;4.50;2.30;;;;;;;19.78;54.02;95594.38;4884618;29;20374;-80
2022/08/13 01:04:03;;;;;;;2.83;2.30;;;;;;;19.64;54.62;95594.63;4886931;29;20280;-80
2022/08/13 01:06:30;;;;;;;2.50;2.28;;;;;;;19.58;55.04;95590.34;4886569;29;20263;-80
2022/08/13 01:08:57;;;;;;;2.33;2.03;;;;;;;19.67;54.68;95590.75;4882336;29;20207;-80
2022/08/13 01:11:25;;;;;;;2.33;2.20;;;;;;;19.70;54.54;95585.06;4895332;29;20647;-80
2022/08/13 01:13:53;;;;;;;2.20;2.10;;;;;;;19.68;54.81;95587.13;4893816;29;20514;-79
2022/08/13 01:16:20;;;;;;;2.05;1.95;;;;;;;19.61;55.07;95584.66;4884955;29;20207;-78
2022/08/13 01:18:50;;;;;;;2.65;2.10;;;;;;;19.45;55.30;95584.56;4899740;29;20214;-78
2022/08/13 01:21:18;;;;;;;2.10;2.00;;;;;;;19.36;55.44;95585.97;4894007;29;20235;-79
2022/08/13 01:23:48;;;;;;;2.50;2.30;;;;;;;19.42;55.25;95592.88;4885303;29;20261;-78
2022/08/13 01:26:16;;;;;;;2.95;2.20;;;;;;;19.51;55.38;95587.06;4892746;29;20674;-78
2022/08/13 01:28:43;;;;;;;3.42;2.50;;;;;;;19.51;55.64;95587.06;4890102;29;20286;-78
2022/08/13 01:31:11;;;;;;;2.10;2.00;;;;;;;19.60;55.22;95583.09;4890699;29;20255;-78
2022/08/13 01:33:38;;;;;;;2.50;2.30;;;;;;;19.57;55.21;95580.94;4890556;29;20312;-78
2022/08/13 01:36:07;;;;;;;2.15;2.05;;;;;;;19.55;55.01;95588.19;4890788;29;20233;-80
2022/08/13 01:38:35;;;;;;;2.42;2.22;;;;;;;19.48;55.36;95576.25;4903996;29;20691;-78
2022/08/13 01:41:04;;;;;;;3.92;2.50;;;;;;;19.42;55.64;95578.00;4898551;29;20275;-79
2022/08/13 01:43:32;;;;;;;2.25;2.05;;;;;;;19.36;55.64;95578.13;4879672;29;20231;-79
2022/08/13 01:46:00;;;;;;;2.30;2.20;;;;;;;19.26;56.10;95576.09;4893819;29;20206;-79
2022/08/13 01:51:18;;;;;;;2.35;2.15;;;;;;;19.45;55.95;95572.28;4880481;29;20583;-79
2022/08/13 01:53:46;;;;;;;1.90;1.80;;;;;;;19.59;55.33;95578.09;4893340;29;20199;-79
2022/08/13 01:56:21;;;;;;;2.30;2.10;;;;;;;19.54;55.52;95581.38;4886316;29;20200;-79
2022/08/13 01:58:49;;;;;;;2.30;2.10;;;;;;;19.44;56.00;95578.53;4895459;29;20202;-79
2022/08/13 02:01:17;;;;;;;2.20;2.10;;;;;;;19.42;55.38;95579.81;4891086;29;20684;-79
2022/08/13 02:03:49;;;;;;;2.50;2.30;;;;;;;19.40;55.32;95585.28;4886823;29;20278;-79
2022/08/13 02:06:21;;;;;;;2.20;2.10;;;;;;;19.36;55.06;95573.69;4892647;29;20208;-79
2022/08/13 02:08:50;;;;;;;2.05;1.95;;;;;;;19.38;55.43;95576.06;4898384;29;20203;-79
2022/08/13 02:11:18;;;;;;;6.03;2.30;;;;;;;19.20;55.56;95579.63;4894633;29;20235;-80
2022/08/13 02:13:48;;;;;;;2.20;2.00;;;;;;;18.96;56.89;95578.88;4883231;29;20208;-79
2022/08/13 02:16:14;;;;;;;2.25;2.05;;;;;;;18.94;56.76;95573.88;4888732;29;20210;-79
2022/08/13 02:18:41;;;;;;;2.20;2.00;;;;;;;18.88;56.89;95580.00;4886439;29;20735;-79
2022/08/13 02:21:07;;;;;;;2.65;1.95;;;;;;;18.94;56.19;95573.09;4882353;29;20199;-79
2022/08/13 02:23:34;;;;;;;2.30;2.10;;;;;;;18.89;56.57;95578.19;4882483;29;20235;-79
2022/08/13 02:26:05;;;;;;;2.25;2.05;;;;;;;18.83;56.17;95572.09;4886091;29;20206;-79
2022/08/13 02:28:37;;;;;;;2.78;2.40;;;;;;;18.84;56.36;95570.28;4901558;29;20203;-79
2022/08/13 02:31:03;;;;;;;2.10;2.00;;;;;;;18.80;56.74;95569.94;4882679;29;20635;-79
2022/08/13 02:33:30;;;;;;;2.53;1.95;;;;;;;18.83;56.92;95571.28;4883170;29;20286;-80
2022/08/13 02:35:57;;;;;;;2.40;2.20;;;;;;;18.92;56.57;95575.91;4899234;29;20199;-82
2022/08/13 02:38:24;;;;;;;2.63;2.20;;;;;;;18.97;56.14;95576.03;4885763;29;20210;-82
2022/08/13 02:43:37;;;;;;;3.28;2.45;;;;;;;19.05;55.69;95572.25;4898017;29;20290;-82
2022/08/13 02:46:04;;;;;;;2.28;2.08;;;;;;;19.01;56.09;95575.59;4893479;29;20210;-82
2022/08/13 02:48:31;;;;;;;2.20;2.10;;;;;;;19.02;56.02;95570.13;4891856;29;20202;-82
2022/08/13 02:50:58;;;;;;;2.38;2.17;;;;;;;18.92;56.53;95577.75;4893291;29;20774;-81
2022/08/13 02:53:25;;;;;;;2.20;2.00;;;;;;;18.80;56.67;95571.75;4888433;29;20207;-82
2022/08/13 02:55:52;;;;;;;2.05;1.95;;;;;;;18.95;56.51;95580.69;4895910;29;20218;-82
2022/08/13 02:58:19;;;;;;;2.08;1.88;;;;;;;18.98;56.70;95572.41;4879638;29;20237;-82
2022/08/13 03:00:49;;;;;;;2.22;2.03;;;;;;;19.15;56.05;95572.50;4882843;29;20667;-82
2022/08/13 03:03:16;;;;;;;5.13;2.42;;;;;;;19.17;55.92;95573.06;4882462;29;20635;-82
2022/08/13 03:05:43;;;;;;;2.00;1.90;;;;;;;19.25;55.86;95569.28;4897824;29;20207;-82
2022/08/13 03:08:11;;;;;;;2.25;2.10;;;;;;;19.17;56.38;95567.84;4882770;29;20200;-82
2022/08/13 03:10:40;;;;;;;3.45;2.15;;;;;;;19.12;56.25;95572.16;4881814;29;20211;-82
2022/08/13 03:13:15;;;;;;;2.20;2.00;;;;;;;18.98;57.14;95574.22;4897796;29;20373;-82
2022/08/13 03:15:43;;;;;;;2.10;1.90;;;;;;;19.03;56.67;95570.94;4893995;29;20226;-82
2022/08/13 03:18:11;;;;;;;1.90;1.80;;;;;;;19.09;56.52;95565.56;4879604;29;20624;-82
2022/08/13 03:20:38;;;;;;;2.10;2.00;;;;;;;19.19;56.74;95563.19;4881431;29;20698;-81
2022/08/13 03:23:04;;;;;;;2.40;2.20;;;;;;;19.25;56.61;95559.63;4898329;29;20239;-82
2022/08/13 03:25:31;;;;;;;2.30;2.10;;;;;;;19.23;56.96;95558.31;4896821;29;20211;-82
2022/08/13 03:27:58;;;;;;;2.45;2.00;;;;;;;19.10;57.23;95566.38;4881183;29;20557;-82
2022/08/13 03:30:27;;;;;;;1.80;1.70;;;;;;;19.11;57.14;95562.72;4880745;29;20231;-82
2022/08/13 03:32:54;;;;;;;2.40;2.20;;;;;;;19.03;57.22;95568.31;4897554;29;20231;-82
2022/08/13 03:35:24;;;;;;;2.17;2.08;;;;;;;18.95;57.30;95566.84;4893525;29;20200;-81
2022/08/13 03:37:53;;;;;;;2.58;2.38;;;;;;;18.91;57.55;95578.75;4880570;29;20216;-82
2022/08/13 03:40:21;;;;;;;2.40;2.20;;;;;;;18.90;57.22;95582.38;4879716;29;20207;-82
2022/08/13 03:42:48;;;;;;;2.35;2.15;;;;;;;18.85;57.19;95580.47;4880073;29;20243;-82
2022/08/13 03:45:16;;;;;;;3.08;2.60;;;;;;;18.83;57.41;95576.50;4911835;29;20289;-82
2022/08/13 03:47:43;;;;;;;3.10;2.60;;;;;;;18.84;57.50;95572.88;4891581;29;20199;-82
2022/08/13 03:50:12;;;;;;;2.75;2.30;;;;;;;18.70;58.16;95576.72;4879538;29;20426;-82
2022/08/13 03:52:42;;;;;;;2.50;2.30;;;;;;;18.67;58.30;95577.97;4896956;29;20262;-82
2022/08/13 03:55:11;;;;;;;3.70;2.25;;;;;;;18.76;57.84;95579.22;4897945;29;20207;-82
2022/08/13 03:57:40;;;;;;;3.45;2.40;;;;;;;18.67;58.35;95582.38;4882284;29;20204;-83
2022/08/13 04:00:09;;;;;;;2.55;2.35;;;;;;;18.70;57.98;95579.34;4881619;29;20596;-82
2022/08/13 04:02:40;;;;;;;2.42;2.22;;;;;;;18.74;58.17;95581.25;4888222;29;20231;-82
2022/08/13 04:05:08;;;;;;;2.55;2.35;;;;;;;18.79;57.43;95578.78;4886855;29;20259;-82
2022/08/13 04:07:35;;;;;;;3.20;2.90;;;;;;;18.57;58.30;95583.72;4880061;29;20212;-82
2022/08/13 04:10:04;;;;;;;3.65;2.60;;;;;;;18.48;58.90;95589.50;4880019;29;20235;-82
2022/08/13 04:12:31;;;;;;;3.17;2.53;;;;;;;18.54;58.27;95589.38;4879387;29;20266;-82
2022/08/13 04:14:57;;;;;;;2.70;2.20;;;;;;;18.47;58.46;95583.47;4879678;29;20656;-81
2022/08/13 04:17:24;;;;;;;2.88;2.13;;;;;;;18.54;58.25;95575.56;4880335;29;20263;-82
2022/08/13 04:19:50;;;;;;;3.25;2.30;;;;;;;18.50;57.74;95572.59;4879698;29;20226;-82
2022/08/13 04:22:17;;;;;;;2.88;2.30;;;;;;;18.46;58.21;95573.31;4878204;29;20239;-82
2022/08/13 04:24:44;;;;;;;2.70;2.50;;;;;;;18.21;59.87;95571.69;4883377;29;20227;-79
2022/08/13 04:27:11;;;;;;;2.55;2.35;;;;;;;18.11;59.43;95568.00;4887380;29;20204;-79
2022/08/13 04:29:39;;;;;;;2.88;2.67;;;;;;;18.08;59.87;95568.50;4888083;29;20208;-80
2022/08/13 04:32:06;;;;;;;2.83;2.30;;;;;;;18.29;59.25;95565.31;4886352;29;20239;-80
2022/08/13 04:34:32;;;;;;;2.63;2.10;;;;;;;18.51;58.87;95563.75;4886808;29;20203;-79
2022/08/13 04:36:58;;;;;;;2.40;2.20;;;;;;;18.69;58.35;95565.50;4885471;29;20207;-79
2022/08/13 04:39:25;;;;;;;2.75;2.30;;;;;;;18.44;59.42;95570.91;4885250;29;20211;-79
2022/08/13 04:41:51;;;;;;;2.58;2.38;;;;;;;18.18;59.96;95572.13;4885122;29;20264;-79
2022/08/13 04:44:19;;;;;;;2.50;2.33;;;;;;;18.02;60.75;95574.56;4884858;29;20243;-79
2022/08/13 04:46:46;;;;;;;3.55;2.35;;;;;;;18.01;60.88;95565.97;4885829;29;20215;-79
2022/08/13 04:49:12;;;;;;;2.78;2.50;;;;;;;18.23;60.26;95569.66;4885174;29;20207;-79
2022/08/13 04:51:39;;;;;;;3.17;2.20;;;;;;;18.47;59.63;95573.06;4884717;29;20290;-79
2022/08/13 04:54:06;;;;;;;2.53;2.33;;;;;;;18.69;57.73;95581.16;4884739;29;20227;-80
2022/08/13 04:56:34;;;;;;;2.72;2.40;;;;;;;18.88;56.46;95574.00;4885605;29;20315;-79
2022/08/13 04:59:00;;;;;;;2.72;2.45;;;;;;;18.98;55.94;95567.19;4885963;29;20234;-79
2022/08/13 05:01:29;;;;;;;2.55;2.35;;;;;;;19.12;54.96;95562.50;4884723;29;20283;-79
2022/08/13 05:03:55;;;;;;;2.58;2.38;;;;;;;19.25;54.78;95551.00;4894027;29;20246;-79
2022/08/13 05:06:22;;;;;;;2.25;2.15;;;;;;;19.31;54.17;95555.31;4904005;29;20207;-80
2022/08/13 05:08:50;;;;;;;2.47;2.28;;;;;;;19.22;54.22;95546.28;4904807;29;20239;-79
2022/08/13 05:11:18;;;;;;;2.65;2.45;;;;;;;19.13;54.36;95543.22;4903250;29;20238;-79
2022/08/13 05:13:45;;;;;;;2.50;2.28;;;;;;;19.24;54.08;95544.22;4902207;29;20203;-79
2022/08/13 05:16:14;;;;;;;2.47;2.28;;;;;;;19.14;54.53;95541.41;4903475;29;20258;-79
2022/08/13 05:18:45;;;;;;;2.50;2.30;;;;;;;19.14;53.83;95536.19;4904118;29;20251;-79
2022/08/13 05:21:12;;;;;;;2.70;2.50;;;;;;;19.09;53.56;95549.13;4903118;29;21229;-79
2022/08/13 05:23:41;;;;;;;3.20;2.70;;;;;;;19.06;54.02;95546.97;4903494;29;20267;-79
2022/08/13 05:26:08;;;;;;;3.38;2.40;;;;;;;19.16;54.15;95542.75;4904498;29;20239;-79
2022/08/13 05:28:35;;;;;;;2.70;2.50;;;;;;;19.15;54.12;95541.16;4903259;29;20211;-79
2022/08/13 05:31:03;;;;;;;4.45;2.50;;;;;;;19.19;54.13;95544.13;4902438;29;20590;-79
2022/08/13 05:33:31;;;;;;;5.97;2.70;;;;;;;19.38;53.71;95542.13;4903747;29;20203;-80
2022/08/13 05:36:01;;;;;;;3.17;2.75;;;;;;;19.35;54.01;95542.59;4904531;29;20207;-79
2022/08/13 05:38:30;;;;;;;2.60;2.40;;;;;;;19.37;53.52;95546.56;4904333;29;20207;-79
2022/08/13 05:40:58;;;;;;;2.35;2.25;;;;;;;19.29;53.82;95545.09;4903799;29;20198;-79
2022/08/13 05:43:27;;;;;;;2.40;2.20;;;;;;;19.41;53.75;95545.06;4905610;29;20206;-79
2022/08/13 05:45:57;;;;;;;3.22;2.10;;;;;;;19.52;53.31;95543.47;4910058;29;20211;-80
2022/08/13 05:48:24;;;;;;;2.80;2.42;;;;;;;19.71;52.57;95542.25;4909173;29;20270;-79
2022/08/13 05:50:50;;;;;;;4.75;3.05;;;;;;;19.77;52.72;95545.75;4907113;29;20203;-80
2022/08/13 05:53:18;;;;;;;2.47;2.28;;;;;;;19.82;53.10;95554.47;4908096;29;20258;-79
2022/08/13 05:55:45;;;;;;;2.78;2.58;;;;;;;19.79;52.51;95551.53;4909663;29;20206;-80
2022/08/13 05:58:12;;;;;;;3.03;2.40;;;;;;;19.86;52.28;95546.94;4906801;29;20754;-79
2022/08/13 06:03:25;;;;;;;2.72;2.53;;;;;;;19.74;52.73;95552.25;4907648;29;20263;-79
2022/08/13 06:05:53;;;;;;;3.00;2.35;;;;;;;19.81;52.43;95542.44;4907489;29;20258;-80
2022/08/13 06:08:24;;;;;;;2.72;2.53;;;;;;;19.90;52.62;95540.22;4907664;29;20210;-79
2022/08/13 06:10:50;;;;;;;2.53;2.33;;;;;;;19.94;52.66;95544.75;4906374;29;20234;-80
2022/08/13 06:13:17;;;;;;;2.50;2.30;;;;;;;19.98;52.64;95540.66;4907044;29;20812;-79
2022/08/13 06:15:44;;;;;;;2.60;2.35;;;;;;;20.06;52.47;95541.28;4906669;29;20214;-79
2022/08/13 06:18:12;;;;;;;7.15;4.00;;;;;;;20.12;52.18;95546.34;4907232;29;20238;-79
2022/08/13 06:20:40;;;;;;;3.50;2.70;;;;;;;20.11;51.49;95547.38;4906373;29;20293;-79
2022/08/13 06:23:11;;;;;;;3.42;2.30;;;;;;;20.11;51.89;95539.53;4905699;29;20254;-79
2022/08/13 06:25:41;;;;;;;2.20;2.00;;;;;;;20.08;51.17;95545.22;4906269;29;20238;-79
2022/08/13 06:28:10;;;;;;;3.00;2.13;;;;;;;20.10;51.22;95555.47;4907042;29;20235;-80
2022/08/13 06:30:38;;;;;;;2.50;2.28;;;;;;;20.07;51.32;95556.72;4906977;29;20229;-80
2022/08/13 06:33:04;;;;;;;2.42;2.22;;;;;;;20.05;51.33;95550.94;4906279;29;20270;-79
2022/08/13 06:35:31;;;;;;;4.13;2.30;;;;;;;20.22;51.38;95551.72;4907103;29;20262;-80
2022/08/13 06:37:58;;;;;;;2.42;2.17;;;;;;;20.25;51.04;95547.84;4906745;29;20217;-79
2022/08/13 06:40:25;;;;;;;9.27;8.43;;;;;;;20.26;51.13;95544.22;4907108;29;20203;-80
2022/08/13 06:42:53;;;;;;;4.88;2.50;;;;;;;20.25;50.27;95553.09;4905926;29;20239;-79
2022/08/13 06:45:20;;;;;;;2.50;2.30;;;;;;;20.25;50.77;95551.25;4909143;29;20255;-82
2022/08/13 06:47:48;;;;;;;4.00;3.13;;;;;;;20.37;50.94;95548.63;4904396;29;20324;-82
2022/08/13 06:50:15;;;;;;;4.00;3.10;;;;;;;20.52;50.84;95548.03;4903164;29;20262;-82
2022/08/13 06:52:41;;;;;;;3.80;2.60;;;;;;;20.70;50.31;95545.16;4902745;29;20238;-82
2022/08/13 06:55:09;;;;;;;2.63;2.42;;;;;;;20.66;50.56;95551.91;4904307;29;20210;-82
2022/08/13 06:57:38;;;;;;;2.42;2.15;;;;;;;20.86;50.23;95554.81;4903431;29;20262;-82
2022/08/13 07:00:10;;;;;;;2.63;2.42;;;;;;;20.90;49.76;95558.53;4904131;29;20211;-82
2022/08/13 07:02:39;;;;;;;10.07;8.93;;;;;;;21.00;49.80;95560.47;4906452;29;20266;-82
2022/08/13 07:05:09;;;;;;;2.60;2.40;;;;;;;21.04;48.30;95559.75;4906735;29;20255;-82
2022/08/13 07:07:44;;;;;;;2.28;2.08;;;;;;;21.04;48.97;95553.72;4907869;29;20203;-80
2022/08/13 07:10:13;;;;;;;4.13;2.40;;;;;;;21.05;48.83;95557.94;4907472;29;20207;-80
2022/08/13 07:12:42;;;;;;;12.20;4.20;;;;;;;21.12;48.82;95558.56;4906474;29;20290;-80
2022/08/13 07:15:15;;;;;;;2.88;2.67;;;;;;;21.21;48.39;95564.19;4906379;29;20208;-79
2022/08/13 07:17:42;;;;;;;2.33;1.98;;;;;;;21.19;47.42;95561.78;4905967;29;20675;-80
2022/08/13 07:20:10;;;;;;;3.17;2.00;;;;;;;21.30;48.47;95563.53;4904735;29;20743;-80
2022/08/13 07:22:36;;;;;;;2.75;2.17;;;;;;;21.40;47.87;95562.84;4904822;29;20239;-80
2022/08/13 07:25:03;;;;;;;2.35;2.13;;;;;;;21.51;47.85;95556.69;4902631;29;20238;-80
2022/08/13 07:27:30;;;;;;;3.25;2.00;;;;;;;21.74;47.98;95558.25;4902629;29;20207;-80
2022/08/13 07:29:59;;;;;;;41.55;37.47;;;;;;;21.99;47.13;95555.06;4903412;29;20249;-79
2022/08/13 07:32:28;;;;;;;2.95;2.60;;;;;;;22.16;46.35;95554.97;4902579;29;20242;-80
2022/08/13 07:34:58;;;;;;;4.80;4.40;;;;;;;22.25;46.09;95550.88;4904901;29;20237;-80
2022/08/13 07:37:25;;;;;;;3.92;3.50;;;;;;;22.33;46.72;95561.69;4904667;29;20306;-80
2022/08/13 07:39:52;;;;;;;4.32;3.92;;;;;;;22.58;46.88;95558.47;4904539;29;20210;-80
2022/08/13 07:42:21;;;;;;;2.90;2.70;;;;;;;22.72;45.86;95556.97;4903654;29;20290;-79
2022/08/13 07:44:50;;;;;;;5.35;2.45;;;;;;;22.82;45.09;95553.66;4905249;29;20244;-80
2022/08/13 07:47:18;;;;;;;2.55;2.35;;;;;;;22.99;45.31;95556.09;4905412;29;20221;-79
2022/08/13 07:49:46;;;;;;;2.38;2.17;;;;;;;23.11;45.94;95561.16;4904475;29;20218;-80
2022/08/13 07:52:13;;;;;;;2.22;2.03;;;;;;;23.20;44.36;95560.41;4903155;29;20235;-79
2022/08/13 07:54:40;;;;;;;2.08;1.90;;;;;;;23.35;44.68;95557.06;4904899;29;20214;-80
2022/08/13 07:57:10;;;;;;;2.13;1.90;;;;;;;23.48;44.77;95563.66;4904231;29;20294;-80
2022/08/13 07:59:37;;;;;;;2.00;1.90;;;;;;;23.69;44.51;95562.72;4905593;29;20229;-80
2022/08/13 08:02:07;;;;;;;2.83;2.05;;;;;;;23.84;43.82;95556.72;4902947;29;20272;-80
2022/08/13 08:04:35;;;;;;;2.13;1.95;;;;;;;24.00;42.97;95556.47;4909240;29;20234;-80
2022/08/13 08:07:04;;;;;;;3.55;1.90;;;;;;;24.02;43.10;95561.47;4904546;29;20203;-80
2022/08/13 08:09:31;;;;;;;2.10;2.00;;;;;;;24.07;42.92;95562.25;4905516;29;20202;-80
2022/08/13 08:14:44;;;;;;;16.10;14.45;;;;;;;24.42;41.66;95558.09;4905131;29;20278;-80
2022/08/13 08:17:11;;;;;;;2.78;2.58;;;;;;;24.43;41.68;95554.44;4905311;29;20726;-80
2022/08/13 08:19:39;;;;;;;1.80;1.70;;;;;;;24.30;42.53;95552.31;4872073;29;1020766;-80
2022/08/13 08:22:10;;;;;;;2.63;2.00;;;;;;;24.27;42.47;95550.97;4904643;29;20591;-80
2022/08/13 08:24:36;;;;;;;2.85;2.50;;;;;;;24.47;41.94;95552.81;4906610;29;20237;-80
2022/08/13 08:27:08;;;;;;;2.42;2.17;;;;;;;24.60;41.35;95554.16;4905614;29;20222;-80
2022/08/13 08:29:35;;;;;;;2.63;1.88;;;;;;;24.87;40.67;95553.81;4906256;29;20231;-80
2022/08/13 08:32:08;;;;;;;2.60;2.03;;;;;;;25.04;40.36;95565.66;4904700;29;20246;-80
2022/08/13 08:34:36;;;;;;;4.72;4.35;;;;;;;25.13;40.26;95556.16;4906069;29;20211;-80
2022/08/13 08:37:03;;;;;;;3.22;2.17;;;;;;;25.25;39.98;95553.22;4906087;29;20234;-80
2022/08/13 08:42:38;;;;;;;1.80;1.70;;;;;;;25.18;39.33;95547.47;4903983;29;20311;-80
2022/08/13 08:45:13;;;;;;;2.10;2.00;;;;;;;25.27;39.99;95551.09;4904516;29;20233;-80
2022/08/13 08:47:41;;;;;;;2.35;1.80;;;;;;;25.40;39.04;95565.56;4904792;29;20206;-80
2022/08/13 08:50:10;;;;;;;3.85;1.80;;;;;;;25.27;38.57;95555.56;4903834;29;20207;-80
2022/08/13 08:55:24;;;;;;;3.05;1.80;;;;;;;25.66;39.85;95553.84;4904317;29;20250;-80
2022/08/13 08:57:52;;;;;;;2.45;1.90;;;;;;;25.88;38.88;95560.59;4904819;29;20298;-80
2022/08/13 09:00:23;;;;;;;2.05;1.85;;;;;;;25.95;39.22;95553.16;4903255;29;20238;-80
2022/08/13 09:02:50;;;;;;;1.80;1.70;;;;;;;26.27;39.12;95560.59;4903174;29;20243;-80
2022/08/13 09:05:20;;;;;;;3.13;1.90;;;;;;;26.54;38.61;95557.50;4903471;29;20707;-80
2022/08/13 09:07:48;;;;;;;1.90;1.80;;;;;;;26.67;37.84;95555.00;4904955;29;20246;-80
2022/08/13 09:10:16;;;;;;;1.73;1.63;;;;;;;26.60;37.97;95557.16;4903903;29;20221;-80
2022/08/13 09:12:45;;;;;;;2.55;2.00;;;;;;;26.35;38.05;95557.41;4903277;29;20239;-80
2022/08/13 09:15:12;;;;;;;1.65;1.55;;;;;;;26.19;38.59;95556.66;4902879;29;20210;-80
2022/08/13 09:17:40;;;;;;;1.95;1.85;;;;;;;26.31;37.96;95557.16;4902836;29;20235;-80
2022/08/13 09:20:12;;;;;;;2.00;1.80;;;;;;;26.60;37.30;95553.72;4902819;29;20276;-80
2022/08/13 09:22:41;;;;;;;1.77;1.63;;;;;;;26.83;37.86;95548.50;4902432;29;20304;-80
2022/08/13 09:25:08;;;;;;;2.72;1.70;;;;;;;26.95;37.76;95555.25;4903334;29;20719;-80
2022/08/13 09:27:36;;;;;;;2.03;1.90;;;;;;;26.65;36.92;95551.06;4903416;29;20213;-80
2022/08/13 09:30:04;;;;;;;1.80;1.70;;;;;;;26.02;36.97;95549.13;4903775;29;20235;-80
2022/08/13 09:32:32;;;;;;;2.70;1.90;;;;;;;25.66;38.39;95559.13;4903989;29;20238;-80
2022/08/13 09:34:59;;;;;;;3.97;1.85;;;;;;;25.66;38.64;95551.22;4903440;29;20207;-80
2022/08/13 09:37:27;;;;;;;3.30;1.88;;;;;;;25.80;39.04;95556.66;4903129;29;20203;-80
2022/08/13 09:39:58;;;;;;;2.42;2.22;;;;;;;26.25;38.90;95558.22;4903343;29;20222;-80
2022/08/13 09:42:27;;;;;;;2.97;2.20;;;;;;;26.45;38.25;95555.44;4901857;29;20302;-80
2022/08/13 09:44:56;;;;;;;2.03;1.90;;;;;;;26.55;38.45;95551.16;4903608;29;20237;-80
2022/08/13 09:47:25;;;;;;;2.20;1.95;;;;;;;26.79;38.74;95551.97;4902913;29;20235;-80
2022/08/13 09:49:51;;;;;;;2.67;2.30;;;;;;;27.16;39.04;95548.69;4903452;29;20206;-80
2022/08/13 09:52:20;;;;;;;2.25;2.13;;;;;;;27.34;38.35;95555.88;4903326;29;20242;-80
2022/08/13 09:54:47;;;;;;;3.25;2.20;;;;;;;27.42;37.80;95560.56;4904907;29;20203;-80
2022/08/13 09:57:14;;;;;;;3.65;2.10;;;;;;;27.60;38.74;95558.25;4904677;29;20651;-80
2022/08/13 09:59:41;;;;;;;2.97;1.90;;;;;;;27.45;37.98;95549.41;4904796;29;20568;-80
2022/08/13 10:02:12;;;;;;;4.95;2.20;;;;;;;27.38;37.82;95548.16;4904628;29;20258;-80
2022/08/13 10:04:42;;;;;;;4.10;2.30;;;;;;;27.22;37.94;95554.72;4905849;29;20268;-80
2022/08/13 10:07:09;;;;;;;2.10;2.00;;;;;;;26.90;38.15;95550.81;4905877;29;20262;-80
2022/08/13 10:09:36;;;;;;;2.40;2.20;;;;;;;26.71;39.14;95548.09;4905571;29;20293;-80
2022/08/13 10:12:05;;;;;;;2.33;2.13;;;;;;;26.72;39.67;95546.25;4903545;29;20238;-80
2022/08/13 10:14:31;;;;;;;4.22;2.30;;;;;;;26.77;39.66;95549.59;4904329;29;20310;-80
2022/08/13 10:16:58;;;;;;;2.53;2.40;;;;;;;26.89;39.79;95554.50;4904223;29;20215;-80
2022/08/13 10:19:25;;;;;;;2.50;2.28;;;;;;;27.18;38.70;95555.28;4904107;29;20218;-80
2022/08/13 10:21:52;;;;;;;3.00;2.80;;;;;;;26.95;39.09;95555.25;4903291;29;20237;-80
2022/08/13 10:24:19;;;;;;;3.78;2.63;;;;;;;27.01;39.67;95554.16;4903814;29;20214;-80
2022/08/13 10:26:46;;;;;;;2.42;2.22;;;;;;;27.16;39.34;95557.41;4903847;29;20849;-80
2022/08/13 10:29:12;;;;;;;2.55;2.35;;;;;;;27.46;39.09;95540.41;4904486;29;20586;-80
2022/08/13 10:31:39;;;;;;;3.97;2.47;;;;;;;27.53;38.49;95547.97;4905088;29;20238;-80
2022/08/13 10:34:06;;;;;;;2.75;2.50;;;;;;;27.63;37.84;95545.25;4906770;29;20274;-80
2022/08/13 10:36:35;;;;;;;2.75;2.55;;;;;;;27.55;37.81;95545.03;4906442;29;20202;-80
2022/08/13 10:39:05;;;;;;;2.65;2.33;;;;;;;27.66;37.73;95534.09;4906496;29;20210;-80
2022/08/13 10:41:31;;;;;;;2.55;2.35;;;;;;;27.75;37.62;95532.38;4905660;29;20250;-80
2022/08/13 10:43:59;;;;;;;2.60;2.40;;;;;;;27.93;38.08;95530.00;4906485;29;20431;-80
2022/08/13 10:46:26;;;;;;;2.75;2.55;;;;;;;27.98;37.76;95527.28;4906672;29;20532;-80
2022/08/13 10:48:55;;;;;;;2.35;2.15;;;;;;;28.06;36.87;95538.03;4906209;29;20215;-80
2022/08/13 10:51:22;;;;;;;3.05;2.22;;;;;;;27.88;36.32;95530.88;4904245;29;20722;-80
2022/08/13 10:53:58;;;;;;;2.50;2.33;;;;;;;27.79;35.88;95532.59;4905927;29;20590;-80
2022/08/13 10:56:28;;;;;;;2.25;2.08;;;;;;;27.81;36.54;95512.69;4906184;29;20207;-80
2022/08/13 10:58:56;;;;;;;4.57;2.20;;;;;;;27.71;36.96;95515.47;4905795;29;20747;-80
2022/08/13 11:01:24;;;;;;;2.85;2.17;;;;;;;27.50;36.88;95514.97;4904887;29;20242;-80
2022/08/13 11:03:52;;;;;;;2.65;2.28;;;;;;;27.03;37.78;95507.09;4906101;29;20210;-80
2022/08/13 11:06:18;;;;;;;2.50;2.30;;;;;;;26.70;37.72;95511.38;4906713;29;20230;-80
2022/08/13 11:08:47;;;;;;;2.45;2.30;;;;;;;26.59;38.56;95523.09;4905539;29;20446;-80
2022/08/13 11:11:13;;;;;;;3.25;2.20;;;;;;;26.61;38.45;95513.84;4904318;29;20730;-80
2022/08/13 11:13:42;;;;;;;3.67;2.17;;;;;;;26.67;38.13;95519.84;4905084;29;20211;-80
2022/08/13 11:16:56;;;;;;;2.53;2.30;;;;;;;26.73;38.39;95524.03;4905626;29;20207;-80
2022/08/13 11:18:56;;;;;;;4.45;2.40;;;;;;;26.58;38.03;95521.53;4906016;29;20215;-80
2022/08/13 11:21:23;;;;;;;7.85;2.25;;;;;;;26.72;38.19;95523.25;4905131;29;20242;-80
2022/08/13 11:23:49;;;;;;;3.95;2.42;;;;;;;26.92;36.75;95521.47;4906104;29;20211;-80
2022/08/13 11:26:16;;;;;;;3.60;2.00;;;;;;;27.10;37.25;95518.91;4906074;29;20230;-80
2022/08/13 11:28:44;;;;;;;3.20;2.15;;;;;;;27.11;36.39;95523.13;4905228;29;20202;-80
2022/08/13 11:31:10;;;;;;;2.42;2.22;;;;;;;26.91;35.97;95517.25;4904094;29;20259;-80
2022/08/13 11:33:37;;;;;;;2.35;2.17;;;;;;;26.50;37.44;95507.09;4904917;29;20217;-80
2022/08/13 11:36:04;;;;;;;2.95;2.25;;;;;;;26.49;37.44;95516.88;4905387;29;20237;-80
2022/08/13 11:38:30;;;;;;;2.60;2.05;;;;;;;26.40;37.70;95507.16;4904856;29;20235;-80
2022/08/13 11:40:59;;;;;;;3.05;2.03;;;;;;;26.51;37.41;95519.22;4902929;29;20258;-80
2022/08/13 11:43:27;;;;;;;3.88;2.20;;;;;;;26.61;36.54;95513.03;4904158;29;20235;-80
2022/08/13 11:45:56;;;;;;;2.72;2.08;;;;;;;26.52;36.55;95512.88;4904458;29;20230;-80
2022/08/13 11:48:24;;;;;;;2.20;2.10;;;;;;;26.76;37.09;95518.16;4904523;29;20214;-80
2022/08/13 11:50:51;;;;;;;3.00;2.05;;;;;;;26.58;37.25;95503.03;4904332;29;20206;-80
2022/08/13 11:53:18;;;;;;;3.00;2.28;;;;;;;26.63;36.77;95508.28;4904463;29;20226;-80
2022/08/13 11:55:44;;;;;;;2.35;2.20;;;;;;;26.75;37.64;95511.31;4904781;29;20231;-80
2022/08/13 11:58:11;;;;;;;3.10;2.17;;;;;;;26.66;37.25;95505.06;4905389;29;20588;-79
2022/08/13 12:00:39;;;;;;;2.38;2.05;;;;;;;26.66;37.07;95508.50;4903241;29;20214;-81